sensor_id;sensor_type;location;lat;lon;timestamp;temperature;humidity
74101;DHT22;62462;52.530;21.682;2023-09-19T18:59:44;18.90;90.50
74101;DHT22;62462;52.530;21.682;2023-09-19T19:02:10;18.50;91.20
74101;DHT22;62462;52.530;21.682;2023-09-19T19:04:36;18.80;90.60
74101;DHT22;62462;52.530;21.682;2023-09-19T19:07:08;19.10;89.40
74101;DHT22;62462;52.530;21.682;2023-09-19T19:09:38;19.40;87.90
74101;DHT22;62462;52.530;21.682;2023-09-19T19:12:06;19.60;85.90
74101;DHT22;62462;52.530;21.682;2023-09-19T19:14:32;19.90;84.80
74101;DHT22;62462;52.530;21.682;2023-09-19T19:16:58;20.00;83.70
74101;DHT22;62462;52.530;21.682;2023-09-19T19:19:25;20.00;83.10
74101;DHT22;62462;52.530;21.682;2023-09-19T19:21:51;20.10;82.40
74101;DHT22;62462;52.530;21.682;2023-09-19T19:24:17;20.20;81.70
74101;DHT22;62462;52.530;21.682;2023-09-19T19:26:46;20.30;80.80
74101;DHT22;62462;52.530;21.682;2023-09-19T19:29:12;20.30;80.20
74101;DHT22;62462;52.530;21.682;2023-09-19T19:31:41;20.30;80.00
74101;DHT22;62462;52.530;21.682;2023-09-19T19:34:08;20.30;79.90
74101;DHT22;62462;52.530;21.682;2023-09-19T19:36:33;20.30;79.50
74101;DHT22;62462;52.530;21.682;2023-09-19T19:38:59;20.30;78.80
74101;DHT22;62462;52.530;21.682;2023-09-19T19:41:26;20.30;78.40
74101;DHT22;62462;52.530;21.682;2023-09-19T19:43:52;20.30;78.10
74101;DHT22;62462;52.530;21.682;2023-09-19T19:46:18;20.30;77.80
74101;DHT22;62462;52.530;21.682;2023-09-19T19:48:48;20.30;77.70
74101;DHT22;62462;52.530;21.682;2023-09-19T19:51:13;20.20;77.40
74101;DHT22;62462;52.530;21.682;2023-09-19T19:53:39;20.20;77.70
74101;DHT22;62462;52.530;21.682;2023-09-19T19:56:05;20.10;77.40
74101;DHT22;62462;52.530;21.682;2023-09-19T19:58:32;20.10;78.10
74101;DHT22;62462;52.530;21.682;2023-09-19T20:00:58;20.10;77.00
74101;DHT22;62462;52.530;21.682;2023-09-19T20:03:25;20.10;76.90
74101;DHT22;62462;52.530;21.682;2023-09-19T20:05:51;20.10;76.50
74101;DHT22;62462;52.530;21.682;2023-09-19T20:08:17;20.00;76.20
74101;DHT22;62462;52.530;21.682;2023-09-19T20:10:43;20.00;76.20
74101;DHT22;62462;52.530;21.682;2023-09-19T20:13:12;20.00;76.00
74101;DHT22;62462;52.530;21.682;2023-09-19T20:15:40;19.90;76.30
74101;DHT22;62462;52.530;21.682;2023-09-19T20:18:06;19.80;76.40
74101;DHT22;62462;52.530;21.682;2023-09-19T20:20:41;19.80;76.10
74101;DHT22;62462;52.530;21.682;2023-09-19T20:23:07;19.80;75.80
74101;DHT22;62462;52.530;21.682;2023-09-19T20:25:36;19.80;75.50
74101;DHT22;62462;52.530;21.682;2023-09-19T20:28:05;19.70;75.10
74101;DHT22;62462;52.530;21.682;2023-09-19T20:30:32;19.70;74.70
74101;DHT22;62462;52.530;21.682;2023-09-19T20:32:58;19.60;74.60
74101;DHT22;62462;52.530;21.682;2023-09-19T20:35:27;19.60;74.50
74101;DHT22;62462;52.530;21.682;2023-09-19T20:37:53;19.50;74.40
74101;DHT22;62462;52.530;21.682;2023-09-19T20:40:25;19.50;74.20
74101;DHT22;62462;52.530;21.682;2023-09-19T20:42:51;19.50;74.00
74101;DHT22;62462;52.530;21.682;2023-09-19T20:45:19;19.40;74.00
74101;DHT22;62462;52.530;21.682;2023-09-19T20:47:45;19.40;73.80
74101;DHT22;62462;52.530;21.682;2023-09-19T20:50:11;19.30;73.90
74101;DHT22;62462;52.530;21.682;2023-09-19T20:52:37;19.30;74.00
74101;DHT22;62462;52.530;21.682;2023-09-19T20:55:04;19.20;73.60
74101;DHT22;62462;52.530;21.682;2023-09-19T20:57:31;19.10;73.10
74101;DHT22;62462;52.530;21.682;2023-09-19T20:59:57;19.10;73.00
74101;DHT22;62462;52.530;21.682;2023-09-19T21:02:23;19.10;73.00
74101;DHT22;62462;52.530;21.682;2023-09-19T21:04:48;19.00;72.80
74101;DHT22;62462;52.530;21.682;2023-09-19T21:07:16;19.00;72.70
74101;DHT22;62462;52.530;21.682;2023-09-19T21:09:41;18.90;72.50
74101;DHT22;62462;52.530;21.682;2023-09-19T21:12:10;18.90;72.00
74101;DHT22;62462;52.530;21.682;2023-09-19T21:14:35;18.90;71.80
74101;DHT22;62462;52.530;21.682;2023-09-19T21:17:01;18.70;71.90
74101;DHT22;62462;52.530;21.682;2023-09-19T21:19:28;18.60;72.40
74101;DHT22;62462;52.530;21.682;2023-09-19T21:21:55;18.50;72.00
74101;DHT22;62462;52.530;21.682;2023-09-19T21:24:22;18.50;71.60
74101;DHT22;62462;52.530;21.682;2023-09-19T21:26:52;18.50;71.90
74101;DHT22;62462;52.530;21.682;2023-09-19T21:29:17;18.40;72.00
74101;DHT22;62462;52.530;21.682;2023-09-19T21:31:43;18.40;71.90
74101;DHT22;62462;52.530;21.682;2023-09-19T21:34:11;18.40;71.10
74101;DHT22;62462;52.530;21.682;2023-09-19T21:36:37;18.30;70.80
74101;DHT22;62462;52.530;21.682;2023-09-19T21:39:04;18.30;70.60
74101;DHT22;62462;52.530;21.682;2023-09-19T21:41:30;18.20;70.20
74101;DHT22;62462;52.530;21.682;2023-09-19T21:43:56;18.20;70.40
74101;DHT22;62462;52.530;21.682;2023-09-19T21:46:22;18.10;70.20
74101;DHT22;62462;52.530;21.682;2023-09-19T21:48:51;18.10;70.30
74101;DHT22;62462;52.530;21.682;2023-09-19T21:51:22;18.00;70.30
74101;DHT22;62462;52.530;21.682;2023-09-19T21:53:48;18.00;70.30
74101;DHT22;62462;52.530;21.682;2023-09-19T21:56:14;17.90;70.50
74101;DHT22;62462;52.530;21.682;2023-09-19T21:58:40;17.90;70.10
74101;DHT22;62462;52.530;21.682;2023-09-19T22:01:06;17.90;69.90
74101;DHT22;62462;52.530;21.682;2023-09-19T22:03:39;17.70;69.90
74101;DHT22;62462;52.530;21.682;2023-09-19T22:06:09;17.60;70.10
74101;DHT22;62462;52.530;21.682;2023-09-19T22:08:38;17.60;69.70
74101;DHT22;62462;52.530;21.682;2023-09-19T22:11:04;17.50;70.30
74101;DHT22;62462;52.530;21.682;2023-09-19T22:13:37;17.50;70.30
74101;DHT22;62462;52.530;21.682;2023-09-19T22:16:08;17.50;69.40
74101;DHT22;62462;52.530;21.682;2023-09-19T22:18:34;17.40;69.60
74101;DHT22;62462;52.530;21.682;2023-09-19T22:21:00;17.40;69.90
74101;DHT22;62462;52.530;21.682;2023-09-19T22:23:33;17.30;69.50
74101;DHT22;62462;52.530;21.682;2023-09-19T22:26:06;17.30;70.00
74101;DHT22;62462;52.530;21.682;2023-09-19T22:28:33;17.40;69.70
74101;DHT22;62462;52.530;21.682;2023-09-19T22:30:59;17.30;69.30
74101;DHT22;62462;52.530;21.682;2023-09-19T22:33:28;17.30;69.50
74101;DHT22;62462;52.530;21.682;2023-09-19T22:35:54;17.20;69.40
74101;DHT22;62462;52.530;21.682;2023-09-19T22:38:23;17.20;69.60
74101;DHT22;62462;52.530;21.682;2023-09-19T22:40:49;17.20;69.40
74101;DHT22;62462;52.530;21.682;2023-09-19T22:43:21;17.10;69.70
74101;DHT22;62462;52.530;21.682;2023-09-19T22:45:52;17.10;69.60
74101;DHT22;62462;52.530;21.682;2023-09-19T22:48:19;17.10;69.70
74101;DHT22;62462;52.530;21.682;2023-09-19T22:50:52;17.00;69.20
74101;DHT22;62462;52.530;21.682;2023-09-19T22:53:28;17.00;69.30
74101;DHT22;62462;52.530;21.682;2023-09-19T22:55:54;17.00;69.70
74101;DHT22;62462;52.530;21.682;2023-09-19T22:58:20;17.00;69.20
74101;DHT22;62462;52.530;21.682;2023-09-19T23:00:45;17.00;68.80
74101;DHT22;62462;52.530;21.682;2023-09-19T23:03:15;17.00;68.80
74101;DHT22;62462;52.530;21.682;2023-09-19T23:05:41;17.00;68.60
74101;DHT22;62462;52.530;21.682;2023-09-19T23:08:08;16.90;68.50
74101;DHT22;62462;52.530;21.682;2023-09-19T23:10:53;16.90;68.80
74101;DHT22;62462;52.530;21.682;2023-09-19T23:13:18;16.90;68.90
74101;DHT22;62462;52.530;21.682;2023-09-19T23:15:52;16.90;68.80
74101;DHT22;62462;52.530;21.682;2023-09-19T23:18:22;16.80;68.80
74101;DHT22;62462;52.530;21.682;2023-09-19T23:20:48;16.80;69.00
74101;DHT22;62462;52.530;21.682;2023-09-19T23:23:16;16.70;69.60
74101;DHT22;62462;52.530;21.682;2023-09-19T23:25:44;16.70;69.00
74101;DHT22;62462;52.530;21.682;2023-09-19T23:28:14;16.70;68.50
74101;DHT22;62462;52.530;21.682;2023-09-19T23:30:44;16.70;68.40
74101;DHT22;62462;52.530;21.682;2023-09-19T23:33:13;16.70;69.00
74101;DHT22;62462;52.530;21.682;2023-09-19T23:35:40;16.70;68.90
74101;DHT22;62462;52.530;21.682;2023-09-19T23:38:06;16.70;68.30
74101;DHT22;62462;52.530;21.682;2023-09-19T23:40:33;16.70;68.00
74101;DHT22;62462;52.530;21.682;2023-09-19T23:43:02;16.70;68.30
74101;DHT22;62462;52.530;21.682;2023-09-19T23:45:32;16.70;68.10
74101;DHT22;62462;52.530;21.682;2023-09-19T23:47:59;16.60;67.70
74101;DHT22;62462;52.530;21.682;2023-09-19T23:50:25;16.60;67.90
74101;DHT22;62462;52.530;21.682;2023-09-19T23:52:54;16.60;67.80
74101;DHT22;62462;52.530;21.682;2023-09-19T23:55:20;16.50;67.90
74101;DHT22;62462;52.530;21.682;2023-09-19T23:57:50;16.50;68.00
